createdAt,value
2023-01-29T00:00:17.731Z,102152.78
2023-01-29T00:05:27.780Z,102149.59
2023-01-29T00:10:29.541Z,102140.91
2023-01-29T00:15:31.020Z,102139.22
2023-01-29T00:20:32.500Z,102148.72
2023-01-29T00:25:33.967Z,102140.53
2023-01-29T00:30:36.281Z,102140.09
2023-01-29T00:35:39.572Z,102132.25
2023-01-29T00:41:00.134Z,102138.94
2023-01-29T00:46:01.766Z,102151.94
2023-01-29T00:51:03.293Z,102154.59
2023-01-29T00:56:04.912Z,102152.13
2023-01-29T01:01:06.419Z,102152.00
2023-01-29T01:06:09.488Z,102150.25
2023-01-29T01:11:10.955Z,102150.50
2023-01-29T01:16:13.945Z,102146.34
2023-01-29T01:21:15.427Z,102145.63
2023-01-29T01:26:16.901Z,102148.31
2023-01-29T01:31:18.892Z,102140.56
2023-01-29T01:36:20.472Z,102151.63
2023-01-29T01:41:22.828Z,102148.31
2023-01-29T01:46:25.277Z,102144.22
2023-01-29T01:51:26.739Z,102139.09
2023-01-29T01:56:40.858Z,102135.88
2023-01-29T02:01:43.228Z,102122.81
2023-01-29T02:07:02.878Z,102117.78
2023-01-29T02:12:09.115Z,102103.03
2023-01-29T02:17:12.555Z,102092.72
2023-01-29T02:22:33.526Z,102068.50
2023-01-29T02:28:12.547Z,102044.25
2023-01-29T02:33:35.546Z,102025.53
2023-01-29T02:38:45.504Z,102015.34
2023-01-29T02:43:56.025Z,102009.31
2023-01-29T02:49:04.536Z,102014.84
2023-01-29T02:54:21.818Z,102002.63
2023-01-29T02:59:25.838Z,101993.22
2023-01-29T03:04:31.939Z,102015.75
2023-01-29T03:09:34.752Z,102027.78
2023-01-29T03:14:56.383Z,102034.84
2023-01-29T03:19:57.835Z,102042.09
2023-01-29T03:25:17.585Z,102032.44
2023-01-29T03:30:37.801Z,102031.66
2023-01-29T03:35:43.202Z,102034.09
2023-01-29T03:41:08.987Z,102029.25
2023-01-29T03:46:32.324Z,102030.91
2023-01-29T03:51:40.979Z,102025.56
2023-01-29T03:57:05.448Z,102027.75
2023-01-29T04:02:15.507Z,102043.06
2023-01-29T04:07:23.700Z,102024.50
2023-01-29T04:12:28.241Z,102017.91
2023-01-29T04:17:34.108Z,102023.09
2023-01-29T04:22:37.138Z,102014.34
2023-01-29T04:27:57.945Z,101989.34
2023-01-29T04:33:33.441Z,101999.31
2023-01-29T04:38:52.214Z,101987.66
2023-01-29T04:44:01.773Z,101973.47
2023-01-29T04:49:13.475Z,101966.63
2023-01-29T04:54:23.678Z,101968.75
2023-01-29T04:59:37.153Z,101946.66
2023-01-29T05:04:38.816Z,101953.31
2023-01-29T05:09:40.286Z,101946.31
2023-01-29T05:14:42.199Z,101930.56
2023-01-29T05:19:43.689Z,101898.47
2023-01-29T05:24:46.505Z,101880.31
2023-01-29T05:29:48.041Z,101880.78
2023-01-29T05:34:49.554Z,101892.94
2023-01-29T05:39:51.024Z,101887.69
2023-01-29T05:44:52.584Z,101897.84
2023-01-29T05:49:54.101Z,101902.44
2023-01-29T05:54:55.960Z,101889.13
2023-01-29T05:59:57.448Z,101874.41
2023-01-29T06:04:58.910Z,101835.13
2023-01-29T06:10:00.371Z,101842.44
2023-01-29T06:15:01.836Z,101832.22
2023-01-29T06:20:04.022Z,101830.50
2023-01-29T06:25:06.050Z,101831.69
2023-01-29T06:30:09.645Z,101831.81
2023-01-29T06:35:11.151Z,101836.84
2023-01-29T06:40:12.844Z,101832.47
2023-01-29T06:45:14.372Z,101839.69
2023-01-29T06:50:16.104Z,101843.69
2023-01-29T06:55:17.784Z,101843.06
2023-01-29T07:00:20.396Z,101848.84
2023-01-29T07:05:22.085Z,101821.31
2023-01-29T07:10:23.622Z,101817.53
2023-01-29T07:15:25.213Z,101809.09
2023-01-29T07:20:27.554Z,101823.13
2023-01-29T07:25:30.324Z,101815.34
2023-01-29T07:30:31.870Z,101818.56
2023-01-29T07:35:36.180Z,101819.41
2023-01-29T07:40:37.663Z,101814.44
2023-01-29T07:45:39.467Z,101816.63
2023-01-29T07:50:40.984Z,101814.03
2023-01-29T07:55:44.214Z,101795.59
2023-01-29T08:00:45.634Z,101794.81
2023-01-29T08:05:47.174Z,101789.75
2023-01-29T08:10:48.628Z,101777.94
2023-01-29T08:15:50.102Z,101788.41
2023-01-29T08:20:52.840Z,101775.38
2023-01-29T08:25:54.444Z,101787.22
2023-01-29T08:30:56.040Z,101782.03
2023-01-29T08:35:57.568Z,101774.00
2023-01-29T08:40:59.031Z,101774.06
2023-01-29T08:46:00.533Z,101760.94
2023-01-29T08:51:02.490Z,101760.53
2023-01-29T08:56:04.092Z,101743.47
2023-01-29T09:01:06.980Z,101740.41
2023-01-29T09:06:09.356Z,101729.31
2023-01-29T09:11:11.162Z,101724.13
2023-01-29T09:16:12.683Z,101737.97
2023-01-29T09:21:14.137Z,101749.47
2023-01-29T09:26:15.611Z,101753.53
2023-01-29T09:31:17.231Z,101733.44
2023-01-29T09:36:18.959Z,101717.75
2023-01-29T09:41:39.060Z,101713.94
2023-01-29T09:46:44.284Z,101721.56
2023-01-29T09:51:51.489Z,101707.66
2023-01-29T09:56:55.064Z,101718.34
2023-01-29T10:02:18.476Z,101704.47
2023-01-29T10:07:31.913Z,101706.34
2023-01-29T10:13:05.574Z,101695.47
2023-01-29T10:18:31.560Z,101690.47
2023-01-29T10:23:37.694Z,101681.59
2023-01-29T10:28:46.394Z,101677.59
2023-01-29T10:34:02.182Z,101664.69
2023-01-29T10:39:04.331Z,101662.22
2023-01-29T10:44:20.990Z,101646.69
2023-01-29T10:49:41.938Z,101649.94
2023-01-29T10:55:22.876Z,101637.59
2023-01-29T11:00:28.559Z,101638.44
2023-01-29T11:05:32.914Z,101622.59
2023-01-29T11:10:37.804Z,101621.28
2023-01-29T11:15:39.291Z,101625.97
2023-01-29T11:20:41.972Z,101602.09
2023-01-29T11:25:45.789Z,101581.44
2023-01-29T11:30:47.478Z,101575.72
2023-01-29T11:35:48.953Z,101556.69
2023-01-29T11:40:50.446Z,101566.22
2023-01-29T11:45:54.189Z,101541.16
2023-01-29T11:50:57.420Z,101538.31
2023-01-29T11:55:59.111Z,101529.03
2023-01-29T12:01:01.124Z,101529.53
2023-01-29T12:06:07.480Z,101514.38
2023-01-29T12:11:11.021Z,101502.69
2023-01-29T12:16:17.199Z,101498.81
2023-01-29T12:21:23.069Z,101495.06
2023-01-29T12:26:44.657Z,101496.09
2023-01-29T12:31:55.385Z,101486.84
2023-01-29T12:37:09.739Z,101464.84
2023-01-29T12:42:16.453Z,101449.84
2023-01-29T12:47:33.416Z,101434.50
2023-01-29T12:53:02.034Z,101426.00
2023-01-29T12:58:04.772Z,101430.22
2023-01-29T13:03:27.984Z,101414.09
2023-01-29T13:08:37.551Z,101407.41
2023-01-29T13:13:38.793Z,101394.09
2023-01-29T13:18:42.325Z,101382.66
2023-01-29T13:23:54.529Z,101394.50
2023-01-29T13:28:55.995Z,101386.19
2023-01-29T13:34:08.217Z,101380.69
2023-01-29T13:39:17.373Z,101368.84
2023-01-29T13:44:26.957Z,101365.53
2023-01-29T13:49:35.598Z,101351.13
2023-01-29T13:54:37.115Z,101344.16
2023-01-29T13:59:53.050Z,101340.03
2023-01-29T14:05:12.937Z,101324.50
2023-01-29T14:10:15.586Z,101326.44
2023-01-29T14:15:22.402Z,101324.38
2023-01-29T14:20:27.724Z,101313.91
2023-01-29T14:25:34.765Z,101298.09
2023-01-29T14:30:36.374Z,101298.91
2023-01-29T14:35:37.876Z,101265.69
2023-01-29T14:40:41.169Z,101271.09
2023-01-29T14:45:43.925Z,101269.81
2023-01-29T14:50:49.532Z,101252.69
2023-01-29T14:56:03.181Z,101240.00
2023-01-29T15:01:07.106Z,101239.97
2023-01-29T15:06:09.102Z,101232.03
2023-01-29T15:11:35.857Z,101215.13
2023-01-29T15:16:42.441Z,101210.53
2023-01-29T15:22:03.331Z,101219.00
2023-01-29T15:27:06.489Z,101194.84
2023-01-29T15:32:08.167Z,101180.69
2023-01-29T15:37:27.672Z,101190.56
2023-01-29T15:42:29.687Z,101195.34
2023-01-29T15:47:31.438Z,101188.66
2023-01-29T15:52:35.092Z,101182.09
2023-01-29T15:57:37.768Z,101156.63
2023-01-29T16:02:40.460Z,101147.53
2023-01-29T16:07:42.231Z,101160.53
2023-01-29T16:12:43.703Z,101143.25
2023-01-29T16:17:45.168Z,101143.53
2023-01-29T16:22:46.642Z,101121.47
2023-01-29T16:27:48.124Z,101107.97
2023-01-29T16:32:49.583Z,101093.72
2023-01-29T16:37:51.067Z,101088.31
2023-01-29T16:43:28.393Z,101073.63
2023-01-29T16:48:33.966Z,101072.88
2023-01-29T16:53:35.440Z,101063.34
2023-01-29T16:58:37.082Z,101037.81
2023-01-29T17:03:38.602Z,101046.69
2023-01-29T17:08:42.835Z,101051.94
2023-01-29T17:13:44.391Z,101026.25
2023-01-29T17:18:45.883Z,101033.91
2023-01-29T17:23:47.357Z,101016.59
2023-01-29T17:28:51.712Z,100992.94
2023-01-29T17:33:53.191Z,100980.22
2023-01-29T17:38:54.682Z,100984.72
2023-01-29T17:43:56.145Z,100965.81
2023-01-29T17:48:57.608Z,100968.97
2023-01-29T17:53:59.072Z,100963.25
2023-01-29T17:59:00.912Z,100955.31
2023-01-29T18:04:02.519Z,100940.28
2023-01-29T18:09:04.062Z,100921.50
2023-01-29T18:14:10.242Z,100927.47
2023-01-29T18:19:16.625Z,100918.06
2023-01-29T18:24:20.286Z,100912.88
2023-01-29T18:29:21.769Z,100917.03
2023-01-29T18:34:23.275Z,100897.59
2023-01-29T18:39:25.188Z,100893.25
2023-01-29T18:44:29.620Z,100894.38
2023-01-29T18:49:31.593Z,100874.13
2023-01-29T18:54:34.118Z,100863.91
2023-01-29T18:59:35.594Z,100862.88
2023-01-29T19:04:37.325Z,100864.16
2023-01-29T19:09:40.367Z,100852.16
2023-01-29T19:14:41.963Z,100861.09
2023-01-29T19:19:43.504Z,100876.06
2023-01-29T19:24:45.771Z,100862.31
2023-01-29T19:29:47.265Z,100821.91
2023-01-29T19:34:48.730Z,100816.63
2023-01-29T19:39:50.232Z,100801.63
2023-01-29T19:44:53.301Z,100789.69
2023-01-29T19:49:54.778Z,100777.72
2023-01-29T19:54:56.244Z,100785.47
2023-01-29T19:59:58.181Z,100764.34
2023-01-29T20:05:01.171Z,100744.22
2023-01-29T20:10:02.699Z,100752.38
2023-01-29T20:15:05.387Z,100722.97
2023-01-29T20:20:07.164Z,100758.41
2023-01-29T20:25:09.023Z,100737.81
2023-01-29T20:30:11.050Z,100740.91
2023-01-29T20:35:12.514Z,100721.25
2023-01-29T20:40:15.418Z,100728.94
2023-01-29T20:45:17.063Z,100712.41
2023-01-29T20:50:19.867Z,100690.69
2023-01-29T20:55:21.409Z,100689.59
2023-01-29T21:00:23.058Z,100678.84
2023-01-29T21:05:24.620Z,100652.28
2023-01-29T21:10:26.095Z,100651.75
2023-01-29T21:15:27.558Z,100626.72
2023-01-29T21:20:29.032Z,100618.69
2023-01-29T21:25:30.546Z,100596.72
2023-01-29T21:30:32.210Z,100584.84
2023-01-29T21:35:33.862Z,100565.84
2023-01-29T21:40:35.324Z,100562.84
2023-01-29T21:45:37.329Z,100539.63
2023-01-29T21:50:38.804Z,100529.44
2023-01-29T21:55:40.273Z,100533.56
2023-01-29T22:00:41.740Z,100540.00
2023-01-29T22:05:43.203Z,100536.66
2023-01-29T22:10:44.674Z,100510.78
2023-01-29T22:15:46.342Z,100479.81
2023-01-29T22:20:52.999Z,100475.81
2023-01-29T22:25:54.722Z,100461.19
2023-01-29T22:31:01.407Z,100489.81
2023-01-29T22:36:02.923Z,100497.94
2023-01-29T22:41:05.404Z,100491.66
2023-01-29T22:46:10.502Z,100471.31
2023-01-29T22:51:12.915Z,100484.31
2023-01-29T22:56:14.494Z,100486.13
2023-01-29T23:01:21.260Z,100469.69
2023-01-29T23:06:22.824Z,100462.72
2023-01-29T23:11:24.326Z,100475.69
2023-01-29T23:16:27.992Z,100443.25
2023-01-29T23:21:29.598Z,100426.28
2023-01-29T23:26:49.399Z,100410.69
2023-01-29T23:31:50.902Z,100384.56
2023-01-29T23:36:52.380Z,100370.34
2023-01-29T23:41:53.848Z,100346.53
2023-01-29T23:46:55.391Z,100346.78
2023-01-29T23:51:56.897Z,100339.59
2023-01-29T23:56:58.369Z,100334.72
